createdAt,value
2019-02-02T00:01:05.178Z,117.77
2019-02-02T00:03:36.287Z,119.17
2019-02-02T00:06:06.036Z,114.50
2019-02-02T00:08:35.725Z,115.60
2019-02-02T00:11:05.424Z,121.97
2019-02-02T00:13:34.994Z,117.40
2019-02-02T00:16:04.919Z,113.00
2019-02-02T00:18:34.707Z,122.73
2019-02-02T00:21:04.599Z,117.77
2019-02-02T00:23:34.151Z,96.13
2019-02-02T00:26:03.887Z,104.17
2019-02-02T00:28:33.717Z,125.03
2019-02-02T00:31:03.539Z,132.80
2019-02-02T00:33:33.087Z,119.30
2019-02-02T00:36:02.849Z,115.73
2019-02-02T00:38:32.664Z,115.93
2019-02-02T00:41:02.136Z,121.87
2019-02-02T00:43:31.671Z,120.83
2019-02-02T00:46:01.486Z,115.13
2019-02-02T00:48:31.043Z,128.00
2019-02-02T00:51:00.515Z,108.97
2019-02-02T00:53:30.063Z,110.47
2019-02-02T00:55:59.545Z,111.47
2019-02-02T00:58:29.424Z,104.43
2019-02-02T01:00:58.922Z,108.10
2019-02-02T01:03:28.447Z,110.03
2019-02-02T01:05:58.170Z,114.37
2019-02-02T01:08:27.889Z,117.93
2019-02-02T01:10:57.362Z,117.90
2019-02-02T01:13:27.098Z,108.23
2019-02-02T01:15:56.567Z,106.53
2019-02-02T01:18:26.368Z,105.73
2019-02-02T01:20:55.847Z,108.53
2019-02-02T01:23:25.596Z,113.47
2019-02-02T01:25:55.238Z,120.03
2019-02-02T01:28:24.701Z,113.27
2019-02-02T01:30:54.188Z,117.83
2019-02-02T01:33:23.655Z,111.07
2019-02-02T01:35:53.130Z,113.67
2019-02-02T01:38:22.939Z,106.30
2019-02-02T01:40:52.436Z,111.83
2019-02-02T01:43:21.989Z,118.07
2019-02-02T01:45:51.498Z,111.50
2019-02-02T01:48:21.266Z,110.73
2019-02-02T01:50:50.751Z,115.27
2019-02-02T01:53:20.522Z,115.77
2019-02-02T01:55:50.137Z,112.70
2019-02-02T01:58:19.604Z,119.73
2019-02-02T02:00:49.164Z,116.20
2019-02-02T02:03:18.889Z,106.80
2019-02-02T02:05:48.355Z,115.73
2019-02-02T02:08:17.813Z,116.43
2019-02-02T02:11:05.958Z,112.23
2019-02-02T02:13:54.414Z,125.73
2019-02-02T02:16:23.415Z,106.50
2019-02-02T02:18:52.891Z,110.33
2019-02-02T02:21:22.356Z,110.40
2019-02-02T02:23:51.828Z,120.13
2019-02-02T02:26:21.305Z,110.90
2019-02-02T02:28:51.098Z,121.77
2019-02-02T02:31:21.462Z,129.03
2019-02-02T02:33:50.943Z,111.73
2019-02-02T02:36:20.883Z,120.67
2019-02-02T02:38:50.343Z,119.17
2019-02-02T02:41:19.833Z,123.90
2019-02-02T02:43:49.622Z,116.93
2019-02-02T02:46:19.164Z,115.37
2019-02-02T02:48:48.649Z,110.80
2019-02-02T02:51:18.648Z,107.57
2019-02-02T02:53:48.126Z,105.13
2019-02-02T02:56:17.947Z,109.90
2019-02-02T02:58:47.405Z,122.80
2019-02-02T03:01:18.699Z,118.03
2019-02-02T03:03:48.184Z,101.50
2019-02-02T03:06:17.660Z,113.50
2019-02-02T03:08:48.752Z,118.43
2019-02-02T03:11:18.347Z,121.00
2019-02-02T03:13:47.820Z,119.40
2019-02-02T03:16:17.620Z,111.80
2019-02-02T03:18:47.103Z,112.87
2019-02-02T03:21:16.920Z,117.60
2019-02-02T03:23:46.389Z,123.87
2019-02-02T03:26:15.891Z,124.97
2019-02-02T03:28:53.171Z,135.03
2019-02-02T03:31:16.600Z,125.43
2019-02-02T03:33:46.074Z,120.30
2019-02-02T03:36:15.567Z,117.30
2019-02-02T03:38:45.057Z,113.67
2019-02-02T03:41:14.723Z,112.10
2019-02-02T03:43:44.525Z,108.67
2019-02-02T03:46:14.276Z,118.37
2019-02-02T03:48:44.045Z,116.40
2019-02-02T03:51:13.535Z,108.47
2019-02-02T03:53:43.005Z,113.93
2019-02-02T03:56:12.800Z,120.77
2019-02-02T03:58:42.270Z,117.50
2019-02-02T04:01:11.758Z,114.43
2019-02-02T04:03:42.493Z,122.30
2019-02-02T04:06:12.338Z,120.67
2019-02-02T04:08:41.805Z,111.47
2019-02-02T04:11:11.977Z,110.10
2019-02-02T04:13:41.455Z,111.93
2019-02-02T04:16:10.965Z,121.43
2019-02-02T04:18:40.418Z,117.17
2019-02-02T04:21:09.923Z,109.83
2019-02-02T04:23:39.468Z,128.70
2019-02-02T04:26:08.973Z,115.80
2019-02-02T04:28:38.444Z,114.20
2019-02-02T04:31:07.941Z,115.93
2019-02-02T04:33:37.405Z,132.17
2019-02-02T04:36:06.919Z,134.83
2019-02-02T04:38:36.392Z,126.40
2019-02-02T04:41:05.896Z,121.07
2019-02-02T04:43:35.404Z,136.43
2019-02-02T04:46:04.881Z,116.43
2019-02-02T04:48:34.681Z,136.87
2019-02-02T04:51:04.415Z,132.33
2019-02-02T04:53:33.885Z,135.30
2019-02-02T04:56:03.687Z,123.77
2019-02-02T04:58:33.152Z,125.70
2019-02-02T05:01:02.646Z,118.20
2019-02-02T05:03:32.113Z,121.03
2019-02-02T05:06:01.622Z,120.53
2019-02-02T05:08:31.133Z,123.23
2019-02-02T05:11:00.606Z,117.27
2019-02-02T05:13:30.106Z,129.50
2019-02-02T05:15:59.975Z,119.07
2019-02-02T05:18:29.464Z,117.43
2019-02-02T05:20:58.996Z,125.83
2019-02-02T05:23:28.824Z,115.13
2019-02-02T05:25:58.316Z,125.57
2019-02-02T05:28:28.035Z,117.43
2019-02-02T05:30:57.525Z,110.10
2019-02-02T05:33:26.988Z,117.80
2019-02-02T05:35:56.818Z,119.77
2019-02-02T05:38:26.277Z,113.57
2019-02-02T05:40:55.757Z,120.47
2019-02-02T05:43:25.533Z,117.13
2019-02-02T05:45:55.012Z,120.33
2019-02-02T05:48:24.479Z,127.43
2019-02-02T05:50:54.252Z,114.00
2019-02-02T05:53:23.719Z,110.90
2019-02-02T05:55:53.190Z,110.93
2019-02-02T05:58:22.909Z,124.93
2019-02-02T06:00:52.570Z,118.13
2019-02-02T06:03:22.128Z,126.77
2019-02-02T06:05:53.240Z,111.93
2019-02-02T06:08:22.778Z,111.13
2019-02-02T06:10:52.255Z,112.60
2019-02-02T06:13:21.740Z,116.53
2019-02-02T06:15:53.239Z,122.57
2019-02-02T06:18:22.829Z,121.63
2019-02-02T06:20:52.525Z,123.20
2019-02-02T06:23:22.032Z,129.10
2019-02-02T06:25:51.547Z,128.93
2019-02-02T06:28:21.360Z,116.30
2019-02-02T06:30:51.344Z,115.33
2019-02-02T06:33:20.807Z,107.97
2019-02-02T06:35:50.303Z,108.23
2019-02-02T06:38:19.846Z,99.20
2019-02-02T06:40:49.335Z,101.10
2019-02-02T06:43:19.070Z,104.13
2019-02-02T06:45:48.627Z,110.70
2019-02-02T06:48:18.086Z,100.23
2019-02-02T06:50:48.523Z,91.07
2019-02-02T06:53:18.011Z,92.17
2019-02-02T06:55:47.465Z,97.03
2019-02-02T06:58:16.932Z,93.90
2019-02-02T07:00:46.502Z,99.13
2019-02-02T07:03:16.277Z,104.77
2019-02-02T07:05:45.739Z,101.43
2019-02-02T07:08:16.195Z,104.97
2019-02-02T07:10:45.679Z,112.90
2019-02-02T07:13:15.443Z,111.50
2019-02-02T07:15:44.904Z,111.50
2019-02-02T07:18:14.401Z,115.07
2019-02-02T07:20:43.975Z,108.00
2019-02-02T07:23:13.457Z,115.50
2019-02-02T07:25:42.924Z,106.83
2019-02-02T07:28:12.428Z,110.13
2019-02-02T07:30:42.048Z,111.90
2019-02-02T07:33:11.791Z,126.47
2019-02-02T07:35:41.272Z,119.40
2019-02-02T07:38:10.802Z,115.30
2019-02-02T07:40:40.277Z,112.57
2019-02-02T07:43:10.018Z,113.50
2019-02-02T07:45:39.820Z,104.53
2019-02-02T07:48:09.640Z,114.70
2019-02-02T07:50:39.119Z,114.33
2019-02-02T07:53:08.667Z,111.77
2019-02-02T07:55:38.509Z,119.57
2019-02-02T07:58:07.998Z,130.90
2019-02-02T08:00:41.166Z,123.20
2019-02-02T08:03:09.462Z,192.07
2019-02-02T08:05:38.989Z,152.57
2019-02-02T08:08:08.748Z,155.50
2019-02-02T08:10:38.220Z,136.77
2019-02-02T08:13:07.715Z,131.03
2019-02-02T08:15:37.217Z,152.87
2019-02-02T08:18:07.659Z,137.27
2019-02-02T08:20:37.117Z,122.90
2019-02-02T08:23:06.682Z,124.43
2019-02-02T08:25:36.259Z,119.90
2019-02-02T08:28:06.018Z,124.93
2019-02-02T08:30:36.241Z,123.27
2019-02-02T08:33:06.468Z,123.77
2019-02-02T08:35:35.943Z,124.70
2019-02-02T08:38:05.716Z,116.00
2019-02-02T08:40:35.513Z,119.77
2019-02-02T08:43:05.174Z,117.30
2019-02-02T08:45:36.241Z,122.63
2019-02-02T08:48:05.817Z,125.57
2019-02-02T08:50:36.938Z,126.63
2019-02-02T08:53:07.462Z,124.90
2019-02-02T08:55:36.935Z,125.37
2019-02-02T08:58:06.477Z,123.37
2019-02-02T09:00:36.777Z,116.93
2019-02-02T09:03:06.501Z,115.77
2019-02-02T09:05:36.024Z,129.80
2019-02-02T09:08:05.881Z,118.33
2019-02-02T09:10:35.605Z,123.83
2019-02-02T09:13:05.793Z,117.63
2019-02-02T09:15:35.810Z,117.30
2019-02-02T09:18:06.442Z,114.53
2019-02-02T09:20:36.944Z,120.60
2019-02-02T09:23:06.933Z,123.53
2019-02-02T09:25:36.443Z,111.50
2019-02-02T09:28:06.346Z,114.23
2019-02-02T09:30:36.797Z,129.20
2019-02-02T09:33:06.760Z,131.00
2019-02-02T09:35:36.384Z,118.87
2019-02-02T09:38:06.629Z,120.30
2019-02-02T09:40:36.114Z,120.63
2019-02-02T09:43:05.858Z,119.13
2019-02-02T09:45:35.375Z,114.93
2019-02-02T09:48:05.095Z,121.23
2019-02-02T09:50:34.998Z,116.43
2019-02-02T09:53:04.678Z,121.47
2019-02-02T09:55:34.119Z,116.93
2019-02-02T09:58:08.604Z,105.33
2019-02-02T10:00:37.834Z,106.67
2019-02-02T10:03:07.637Z,112.93
2019-02-02T10:05:37.124Z,107.17
2019-02-02T10:08:07.069Z,104.50
2019-02-02T10:10:37.043Z,108.23
2019-02-02T10:13:06.766Z,117.80
2019-02-02T10:15:36.297Z,128.07
2019-02-02T10:18:08.781Z,116.50
2019-02-02T10:20:38.610Z,119.87
2019-02-02T10:23:08.421Z,119.27
2019-02-02T10:25:37.929Z,125.60
2019-02-02T10:28:08.284Z,109.53
2019-02-02T10:30:39.924Z,114.80
2019-02-02T10:33:09.885Z,108.07
2019-02-02T10:35:39.375Z,120.17
2019-02-02T10:38:09.240Z,115.70
2019-02-02T10:40:38.722Z,116.90
2019-02-02T10:43:08.563Z,113.40
2019-02-02T10:45:38.539Z,117.50
2019-02-02T10:48:08.145Z,107.67
2019-02-02T10:50:37.917Z,114.60
2019-02-02T10:53:07.385Z,119.53
2019-02-02T10:55:36.941Z,114.87
2019-02-02T10:58:06.834Z,125.77
2019-02-02T11:00:38.985Z,123.67
2019-02-02T11:03:08.533Z,117.20
2019-02-02T11:05:38.436Z,124.67
2019-02-02T11:08:08.055Z,123.63
2019-02-02T11:10:37.938Z,124.93
2019-02-02T11:13:07.668Z,122.33
2019-02-02T11:15:37.236Z,127.23
2019-02-02T11:18:07.119Z,132.07
2019-02-02T11:20:37.631Z,122.13
2019-02-02T11:23:07.228Z,124.53
2019-02-02T11:25:36.868Z,135.60
2019-02-02T11:28:06.550Z,127.97
2019-02-02T11:30:36.638Z,123.63
2019-02-02T11:33:06.582Z,134.23
2019-02-02T11:35:37.732Z,141.17
2019-02-02T11:38:07.213Z,141.10
2019-02-02T11:40:36.701Z,131.40
2019-02-02T11:43:06.238Z,135.53
2019-02-02T11:45:35.735Z,133.27
2019-02-02T11:48:05.758Z,125.90
2019-02-02T11:50:35.316Z,142.67
2019-02-02T11:53:05.175Z,132.07
2019-02-02T11:55:34.655Z,137.63
2019-02-02T11:58:04.136Z,130.87
2019-02-02T12:00:41.425Z,141.00
2019-02-02T12:03:10.908Z,138.47
2019-02-02T12:05:40.390Z,144.97
2019-02-02T12:08:10.010Z,143.47
2019-02-02T12:10:39.501Z,143.07
2019-02-02T12:13:09.286Z,147.40
2019-02-02T12:15:38.770Z,164.07
2019-02-02T12:18:08.246Z,159.63
2019-02-02T12:20:37.721Z,155.20
2019-02-02T12:23:10.737Z,150.30
2019-02-02T12:25:40.262Z,150.70
2019-02-02T12:28:09.729Z,144.37
2019-02-02T12:30:39.222Z,159.83
2019-02-02T12:33:09.032Z,154.27
2019-02-02T12:35:38.503Z,148.50
2019-02-02T12:38:08.236Z,159.03
2019-02-02T12:40:37.823Z,130.60
2019-02-02T12:43:07.388Z,155.73
2019-02-02T12:45:42.801Z,135.80
2019-02-02T12:48:12.656Z,158.70
2019-02-02T12:50:42.111Z,147.50
2019-02-02T12:53:11.579Z,139.27
2019-02-02T12:55:41.346Z,141.83
2019-02-02T12:58:10.823Z,145.83
2019-02-02T13:00:40.479Z,144.47
2019-02-02T13:03:09.948Z,143.07
2019-02-02T13:05:39.447Z,141.03
2019-02-02T13:08:08.972Z,128.93
2019-02-02T13:10:38.791Z,140.77
2019-02-02T13:13:08.272Z,144.13
2019-02-02T13:15:37.833Z,139.53
2019-02-02T13:18:07.612Z,148.27
2019-02-02T13:20:37.112Z,140.13
2019-02-02T13:23:06.565Z,151.97
2019-02-02T13:25:36.051Z,158.23
2019-02-02T13:28:05.591Z,169.00
2019-02-02T13:30:36.055Z,153.07
2019-02-02T13:33:05.728Z,145.23
2019-02-02T13:35:36.829Z,147.43
2019-02-02T13:38:06.369Z,145.27
2019-02-02T13:40:35.855Z,148.97
2019-02-02T13:43:05.580Z,136.60
2019-02-02T13:45:35.353Z,142.50
2019-02-02T13:48:06.208Z,134.60
2019-02-02T13:50:35.707Z,155.03
2019-02-02T13:53:06.082Z,162.33
2019-02-02T13:55:35.572Z,146.67
2019-02-02T13:58:05.294Z,151.50
2019-02-02T14:00:35.613Z,144.90
2019-02-02T14:03:05.304Z,140.33
2019-02-02T14:05:34.763Z,140.57
2019-02-02T14:08:04.714Z,135.33
2019-02-02T14:10:34.961Z,139.23
2019-02-02T14:13:04.556Z,138.07
2019-02-02T14:15:34.043Z,150.87
2019-02-02T14:18:03.856Z,145.13
2019-02-02T14:20:33.935Z,131.67
2019-02-02T14:23:03.409Z,141.77
2019-02-02T14:25:32.891Z,129.07
2019-02-02T14:28:02.687Z,138.93
2019-02-02T14:30:32.515Z,141.03
2019-02-02T14:33:13.385Z,141.03
2019-02-02T14:35:33.565Z,150.07
2019-02-02T14:38:03.297Z,129.17
2019-02-02T14:40:33.005Z,156.43
2019-02-02T14:43:02.472Z,146.00
2019-02-02T14:45:31.972Z,136.40
2019-02-02T14:48:01.433Z,167.97
2019-02-02T14:50:32.093Z,148.87
2019-02-02T14:53:01.936Z,151.30
2019-02-02T14:55:31.773Z,139.77
2019-02-02T14:58:01.239Z,155.63
2019-02-02T15:00:31.238Z,143.53
2019-02-02T15:03:03.259Z,143.10
2019-02-02T15:05:42.654Z,168.30
2019-02-02T15:08:03.359Z,140.33
2019-02-02T15:10:32.856Z,140.20
2019-02-02T15:13:02.362Z,172.10
2019-02-02T15:15:32.086Z,159.90
2019-02-02T15:18:01.555Z,160.97
2019-02-02T15:20:33.540Z,158.17
2019-02-02T15:23:03.290Z,161.40
2019-02-02T15:25:33.205Z,163.73
2019-02-02T15:28:03.139Z,148.13
2019-02-02T15:30:36.679Z,154.00
2019-02-02T15:33:06.527Z,160.07
2019-02-02T15:35:36.355Z,146.37
2019-02-02T15:38:05.907Z,148.30
2019-02-02T15:40:35.398Z,153.73
2019-02-02T15:43:05.229Z,148.37
2019-02-02T15:45:34.729Z,156.67
2019-02-02T15:48:04.263Z,133.33
2019-02-02T15:50:33.826Z,155.07
2019-02-02T15:53:03.309Z,144.87
2019-02-02T15:55:32.798Z,149.50
2019-02-02T15:58:02.708Z,142.17
2019-02-02T16:00:34.213Z,154.33
2019-02-02T16:03:03.845Z,170.40
2019-02-02T16:05:34.390Z,161.10
2019-02-02T16:08:09.658Z,170.20
2019-02-02T16:10:39.199Z,201.50
2019-02-02T16:13:08.746Z,150.27
2019-02-02T16:15:38.488Z,158.67
2019-02-02T16:18:09.031Z,169.23
2019-02-02T16:21:03.332Z,176.10
2019-02-02T16:23:33.159Z,167.70
2019-02-02T16:26:02.695Z,148.13
2019-02-02T16:28:32.233Z,159.30
2019-02-02T16:31:01.832Z,150.80
2019-02-02T16:33:31.567Z,171.00
2019-02-02T16:36:01.079Z,160.97
2019-02-02T16:38:30.631Z,169.27
2019-02-02T16:41:00.390Z,166.53
2019-02-02T16:43:29.874Z,152.83
2019-02-02T16:45:59.347Z,161.77
2019-02-02T16:48:28.889Z,151.03
2019-02-02T16:50:58.372Z,147.70
2019-02-02T16:53:28.253Z,180.93
2019-02-02T16:55:57.778Z,158.03
2019-02-02T16:58:27.264Z,174.87
2019-02-02T17:00:56.820Z,165.47
2019-02-02T17:03:26.665Z,172.30
2019-02-02T17:05:56.771Z,146.77
2019-02-02T17:08:26.241Z,153.20
2019-02-02T17:10:56.109Z,139.90
2019-02-02T17:13:25.834Z,148.13
2019-02-02T17:15:55.613Z,193.57
2019-02-02T17:18:25.331Z,156.93
2019-02-02T17:20:54.805Z,142.10
2019-02-02T17:23:24.520Z,135.50
2019-02-02T17:25:53.988Z,150.30
2019-02-02T17:28:23.463Z,144.83
2019-02-02T17:30:52.947Z,144.20
2019-02-02T17:33:23.095Z,134.10
2019-02-02T17:35:52.581Z,147.50
2019-02-02T17:38:22.130Z,155.47
2019-02-02T17:40:51.900Z,149.40
2019-02-02T17:43:21.387Z,148.27
2019-02-02T17:45:51.134Z,154.00
2019-02-02T17:48:20.603Z,137.43
2019-02-02T17:50:50.069Z,154.30
2019-02-02T17:53:19.578Z,158.30
2019-02-02T17:55:49.177Z,161.77
2019-02-02T17:58:18.678Z,161.57
2019-02-02T18:00:49.809Z,155.83
2019-02-02T18:03:19.295Z,152.67
2019-02-02T18:05:48.801Z,156.90
2019-02-02T18:08:18.878Z,141.47
2019-02-02T18:10:48.348Z,158.37
2019-02-02T18:13:17.843Z,142.23
2019-02-02T18:15:47.295Z,152.77
2019-02-02T18:18:16.788Z,164.27
2019-02-02T18:20:46.260Z,174.20
2019-02-02T18:23:18.151Z,208.33
2019-02-02T18:25:46.971Z,247.43
2019-02-02T18:28:16.488Z,180.03
2019-02-02T18:30:45.937Z,169.47
2019-02-02T18:33:15.717Z,172.43
2019-02-02T18:35:45.176Z,169.60
2019-02-02T18:38:14.642Z,164.33
2019-02-02T18:40:44.111Z,159.40
2019-02-02T18:43:13.674Z,146.67
2019-02-02T18:45:43.147Z,162.33
2019-02-02T18:48:12.956Z,157.80
2019-02-02T18:50:42.419Z,145.83
2019-02-02T18:53:11.898Z,142.77
2019-02-02T18:55:44.504Z,147.27
2019-02-02T18:58:14.350Z,149.83
2019-02-02T19:00:44.159Z,135.40
2019-02-02T19:03:13.709Z,146.33
2019-02-02T19:05:43.425Z,139.97
2019-02-02T19:08:12.900Z,138.80
2019-02-02T19:10:42.839Z,140.03
2019-02-02T19:13:12.314Z,138.50
2019-02-02T19:15:41.770Z,133.43
2019-02-02T19:18:11.271Z,133.43
2019-02-02T19:20:40.732Z,134.97
2019-02-02T19:23:10.226Z,137.93
2019-02-02T19:25:39.709Z,151.77
2019-02-02T19:28:09.269Z,151.40
2019-02-02T19:30:38.804Z,139.20
2019-02-02T19:33:09.127Z,154.90
2019-02-02T19:35:38.606Z,155.40
2019-02-02T19:38:08.835Z,160.93
2019-02-02T19:40:38.347Z,146.90
2019-02-02T19:43:08.104Z,166.03
2019-02-02T19:45:37.590Z,160.47
2019-02-02T19:48:07.138Z,171.70
2019-02-02T19:50:36.566Z,167.17
2019-02-02T19:53:06.160Z,178.47
2019-02-02T19:55:35.665Z,180.63
2019-02-02T19:58:05.620Z,161.67
2019-02-02T20:00:35.551Z,164.53
2019-02-02T20:03:05.683Z,175.83
2019-02-02T20:05:35.207Z,166.93
2019-02-02T20:08:05.398Z,173.60
2019-02-02T20:10:34.876Z,182.80
2019-02-02T20:13:04.787Z,195.63
2019-02-02T20:15:34.324Z,188.93
2019-02-02T20:18:09.883Z,188.37
2019-02-02T20:20:34.972Z,169.87
2019-02-02T20:23:04.529Z,195.27
2019-02-02T20:25:33.992Z,192.67
2019-02-02T20:28:03.478Z,177.70
2019-02-02T20:30:33.623Z,185.73
2019-02-02T20:33:03.421Z,187.00
2019-02-02T20:35:40.876Z,183.17
2019-02-02T20:38:04.087Z,180.73
2019-02-02T20:40:33.571Z,185.50
2019-02-02T20:43:03.027Z,178.23
2019-02-02T20:45:35.326Z,212.60
2019-02-02T20:48:05.258Z,191.00
2019-02-02T20:50:34.728Z,205.63
2019-02-02T20:53:04.366Z,191.53
2019-02-02T20:55:37.058Z,200.20
2019-02-02T20:58:06.911Z,207.90
2019-02-02T21:00:38.014Z,181.30
2019-02-02T21:03:07.511Z,190.80
2019-02-02T21:05:37.019Z,173.73
2019-02-02T21:08:06.841Z,228.50
2019-02-02T21:10:36.749Z,186.27
2019-02-02T21:13:06.233Z,200.60
2019-02-02T21:15:35.952Z,195.80
2019-02-02T21:18:06.857Z,206.23
2019-02-02T21:20:37.024Z,198.23
2019-02-02T21:23:06.496Z,209.50
2019-02-02T21:25:36.016Z,201.30
2019-02-02T21:28:05.847Z,198.80
2019-02-02T21:30:36.176Z,210.93
2019-02-02T21:33:06.093Z,188.57
2019-02-02T21:35:35.893Z,198.37
2019-02-02T21:38:05.565Z,216.23
2019-02-02T21:40:35.568Z,199.90
2019-02-02T21:43:06.478Z,202.40
2019-02-02T21:45:36.233Z,193.80
2019-02-02T21:48:05.991Z,194.47
2019-02-02T21:50:35.718Z,184.07
2019-02-02T21:53:05.712Z,195.07
2019-02-02T21:55:35.526Z,188.23
2019-02-02T21:58:05.199Z,177.67
2019-02-02T22:00:37.096Z,171.60
2019-02-02T22:03:07.039Z,170.43
2019-02-02T22:05:36.555Z,173.67
2019-02-02T22:08:06.731Z,164.53
2019-02-02T22:10:36.188Z,160.97
2019-02-02T22:13:06.459Z,151.80
2019-02-02T22:15:35.934Z,155.43
2019-02-02T22:18:05.464Z,143.30
2019-02-02T22:20:34.945Z,159.00
2019-02-02T22:23:04.895Z,158.67
2019-02-02T22:25:34.447Z,159.80
2019-02-02T22:28:04.087Z,169.73
2019-02-02T22:30:37.830Z,160.03
2019-02-02T22:33:07.619Z,152.97
2019-02-02T22:35:37.484Z,152.10
2019-02-02T22:38:07.090Z,153.17
2019-02-02T22:40:36.568Z,159.90
2019-02-02T22:43:06.471Z,147.67
2019-02-02T22:45:37.890Z,142.87
2019-02-02T22:48:07.439Z,142.27
2019-02-02T22:50:37.233Z,153.07
2019-02-02T22:53:06.781Z,144.27
2019-02-02T22:55:36.259Z,154.30
2019-02-02T22:58:05.969Z,160.40
2019-02-02T23:01:00.455Z,143.47
2019-02-02T23:03:38.955Z,150.23
2019-02-02T23:06:41.428Z,142.33
2019-02-02T23:09:32.259Z,151.67
2019-02-02T23:12:14.203Z,155.80
2019-02-02T23:15:15.641Z,161.73
2019-02-02T23:17:45.659Z,164.63
2019-02-02T23:20:15.137Z,130.33
2019-02-02T23:22:44.649Z,151.63
2019-02-02T23:25:14.147Z,152.30
2019-02-02T23:27:43.628Z,159.47
2019-02-02T23:30:17.024Z,145.57
2019-02-02T23:32:46.505Z,157.97
2019-02-02T23:35:16.244Z,155.83
2019-02-02T23:37:46.057Z,154.23
2019-02-02T23:40:15.717Z,171.13
2019-02-02T23:42:45.554Z,155.03
2019-02-02T23:45:15.137Z,162.90
2019-02-02T23:47:44.607Z,149.10
2019-02-02T23:50:14.110Z,153.83
2019-02-02T23:52:43.628Z,151.00
2019-02-02T23:55:13.116Z,168.27
2019-02-02T23:57:42.628Z,164.37
